sensor_id;sensor_type;location;lat;lon;timestamp;temperature;humidity
38239;DHT22;24035;48.900;9.188;2023-07-29T00:00:42;17.00;1.00
38239;DHT22;24035;48.900;9.188;2023-07-29T00:03:09;17.10;22.30
38239;DHT22;24035;48.900;9.188;2023-07-29T00:05:38;17.10;24.90
38239;DHT22;24035;48.900;9.188;2023-07-29T00:08:05;17.20;54.30
38239;DHT22;24035;48.900;9.188;2023-07-29T00:10:36;17.20;43.90
38239;DHT22;24035;48.900;9.188;2023-07-29T00:13:03;17.20;46.80
38239;DHT22;24035;48.900;9.188;2023-07-29T00:15:29;17.20;35.60
38239;DHT22;24035;48.900;9.188;2023-07-29T00:17:55;17.20;43.30
38239;DHT22;24035;48.900;9.188;2023-07-29T00:20:21;17.20;49.60
38239;DHT22;24035;48.900;9.188;2023-07-29T00:22:46;17.30;54.30
38239;DHT22;24035;48.900;9.188;2023-07-29T00:25:15;17.30;47.60
38239;DHT22;24035;48.900;9.188;2023-07-29T00:27:41;17.20;32.70
38239;DHT22;24035;48.900;9.188;2023-07-29T00:30:07;17.30;38.90
38239;DHT22;24035;48.900;9.188;2023-07-29T00:32:34;17.30;69.20
38239;DHT22;24035;48.900;9.188;2023-07-29T00:35:00;17.30;35.80
38239;DHT22;24035;48.900;9.188;2023-07-29T00:37:27;17.30;37.30
38239;DHT22;24035;48.900;9.188;2023-07-29T00:39:53;17.30;33.20
38239;DHT22;24035;48.900;9.188;2023-07-29T00:42:18;17.30;21.00
38239;DHT22;24035;48.900;9.188;2023-07-29T00:44:44;17.40;21.20
38239;DHT22;24035;48.900;9.188;2023-07-29T00:47:11;17.40;28.20
38239;DHT22;24035;48.900;9.188;2023-07-29T00:49:38;17.40;35.00
38239;DHT22;24035;48.900;9.188;2023-07-29T00:52:04;17.40;20.70
38239;DHT22;24035;48.900;9.188;2023-07-29T00:54:30;17.50;15.40
38239;DHT22;24035;48.900;9.188;2023-07-29T00:56:56;17.50;7.70
38239;DHT22;24035;48.900;9.188;2023-07-29T00:59:22;17.50;1.00
38239;DHT22;24035;48.900;9.188;2023-07-29T01:01:48;17.50;1.00
38239;DHT22;24035;48.900;9.188;2023-07-29T01:04:14;17.60;1.00
38239;DHT22;24035;48.900;9.188;2023-07-29T01:09:29;17.50;1.00
38239;DHT22;24035;48.900;9.188;2023-07-29T01:14:55;17.50;1.00
38239;DHT22;24035;48.900;9.188;2023-07-29T01:17:25;17.50;1.00
38239;DHT22;24035;48.900;9.188;2023-07-29T01:20:05;17.40;1.00
38239;DHT22;24035;48.900;9.188;2023-07-29T01:22:34;17.40;1.00
38239;DHT22;24035;48.900;9.188;2023-07-29T01:25:00;17.50;1.00
38239;DHT22;24035;48.900;9.188;2023-07-29T01:27:26;17.50;1.00
38239;DHT22;24035;48.900;9.188;2023-07-29T01:29:53;17.50;1.00
38239;DHT22;24035;48.900;9.188;2023-07-29T01:32:30;17.50;1.00
38239;DHT22;24035;48.900;9.188;2023-07-29T01:35:22;17.50;1.00
38239;DHT22;24035;48.900;9.188;2023-07-29T01:37:52;17.50;1.00
38239;DHT22;24035;48.900;9.188;2023-07-29T01:40:22;17.50;1.00
38239;DHT22;24035;48.900;9.188;2023-07-29T01:42:49;17.50;1.00
38239;DHT22;24035;48.900;9.188;2023-07-29T01:45:16;17.50;1.00
38239;DHT22;24035;48.900;9.188;2023-07-29T01:47:41;17.50;1.00
38239;DHT22;24035;48.900;9.188;2023-07-29T01:50:08;17.50;1.00
38239;DHT22;24035;48.900;9.188;2023-07-29T01:52:34;17.50;1.00
38239;DHT22;24035;48.900;9.188;2023-07-29T01:54:59;17.40;1.00
38239;DHT22;24035;48.900;9.188;2023-07-29T01:57:25;17.50;1.00
38239;DHT22;24035;48.900;9.188;2023-07-29T01:59:51;17.50;1.00
38239;DHT22;24035;48.900;9.188;2023-07-29T02:02:17;17.50;1.00
38239;DHT22;24035;48.900;9.188;2023-07-29T02:04:42;17.50;1.00
38239;DHT22;24035;48.900;9.188;2023-07-29T02:07:08;17.50;1.00
38239;DHT22;24035;48.900;9.188;2023-07-29T02:09:34;17.50;1.00
38239;DHT22;24035;48.900;9.188;2023-07-29T02:12:00;17.50;1.00
38239;DHT22;24035;48.900;9.188;2023-07-29T02:14:26;17.40;99.90
38239;DHT22;24035;48.900;9.188;2023-07-29T02:16:51;17.50;1.00
38239;DHT22;24035;48.900;9.188;2023-07-29T02:19:17;17.50;1.00
38239;DHT22;24035;48.900;9.188;2023-07-29T02:21:43;17.50;99.90
38239;DHT22;24035;48.900;9.188;2023-07-29T02:24:08;17.50;99.90
38239;DHT22;24035;48.900;9.188;2023-07-29T02:26:34;17.50;99.90
38239;DHT22;24035;48.900;9.188;2023-07-29T02:29:00;17.50;1.00
38239;DHT22;24035;48.900;9.188;2023-07-29T02:31:26;17.60;99.90
38239;DHT22;24035;48.900;9.188;2023-07-29T02:33:52;17.50;99.90
38239;DHT22;24035;48.900;9.188;2023-07-29T02:36:18;17.50;99.90
38239;DHT22;24035;48.900;9.188;2023-07-29T02:38:44;17.40;99.90
38239;DHT22;24035;48.900;9.188;2023-07-29T02:41:10;17.40;99.90
38239;DHT22;24035;48.900;9.188;2023-07-29T02:43:37;17.40;99.90
38239;DHT22;24035;48.900;9.188;2023-07-29T02:46:03;17.40;99.90
38239;DHT22;24035;48.900;9.188;2023-07-29T02:48:29;17.40;99.90
38239;DHT22;24035;48.900;9.188;2023-07-29T02:50:56;17.40;99.90
38239;DHT22;24035;48.900;9.188;2023-07-29T02:53:22;17.40;99.90
38239;DHT22;24035;48.900;9.188;2023-07-29T02:55:48;17.40;99.90
38239;DHT22;24035;48.900;9.188;2023-07-29T02:58:14;17.30;99.90
38239;DHT22;24035;48.900;9.188;2023-07-29T03:00:39;17.30;99.90
38239;DHT22;24035;48.900;9.188;2023-07-29T03:03:09;17.40;99.90
38239;DHT22;24035;48.900;9.188;2023-07-29T03:05:35;17.30;99.90
38239;DHT22;24035;48.900;9.188;2023-07-29T03:08:01;17.40;99.90
38239;DHT22;24035;48.900;9.188;2023-07-29T03:10:26;17.40;99.90
38239;DHT22;24035;48.900;9.188;2023-07-29T03:12:55;17.30;99.90
38239;DHT22;24035;48.900;9.188;2023-07-29T03:15:25;17.40;99.90
38239;DHT22;24035;48.900;9.188;2023-07-29T03:17:51;17.40;99.90
38239;DHT22;24035;48.900;9.188;2023-07-29T03:20:17;17.30;1.00
38239;DHT22;24035;48.900;9.188;2023-07-29T03:22:44;17.30;1.00
38239;DHT22;24035;48.900;9.188;2023-07-29T03:25:09;17.20;1.00
38239;DHT22;24035;48.900;9.188;2023-07-29T03:27:35;17.30;1.00
38239;DHT22;24035;48.900;9.188;2023-07-29T03:30:03;17.20;1.00
38239;DHT22;24035;48.900;9.188;2023-07-29T03:32:29;17.20;1.00
38239;DHT22;24035;48.900;9.188;2023-07-29T03:34:55;17.20;99.90
38239;DHT22;24035;48.900;9.188;2023-07-29T03:37:21;17.20;99.90
38239;DHT22;24035;48.900;9.188;2023-07-29T03:39:47;17.30;99.90
38239;DHT22;24035;48.900;9.188;2023-07-29T03:42:13;17.30;99.90
38239;DHT22;24035;48.900;9.188;2023-07-29T03:44:39;17.40;99.90
38239;DHT22;24035;48.900;9.188;2023-07-29T03:47:06;17.40;99.90
38239;DHT22;24035;48.900;9.188;2023-07-29T03:49:32;17.50;56.50
38239;DHT22;24035;48.900;9.188;2023-07-29T03:51:57;17.50;1.00
38239;DHT22;24035;48.900;9.188;2023-07-29T03:54:23;17.60;1.00
38239;DHT22;24035;48.900;9.188;2023-07-29T03:56:49;17.50;1.00
38239;DHT22;24035;48.900;9.188;2023-07-29T03:59:14;17.60;1.00
38239;DHT22;24035;48.900;9.188;2023-07-29T04:01:40;17.60;99.90
38239;DHT22;24035;48.900;9.188;2023-07-29T04:04:06;17.60;99.90
38239;DHT22;24035;48.900;9.188;2023-07-29T04:06:31;17.60;35.90
38239;DHT22;24035;48.900;9.188;2023-07-29T04:08:58;17.60;1.00
38239;DHT22;24035;48.900;9.188;2023-07-29T04:11:24;17.60;41.80
38239;DHT22;24035;48.900;9.188;2023-07-29T04:13:51;17.50;45.10
38239;DHT22;24035;48.900;9.188;2023-07-29T04:16:17;17.50;99.90
38239;DHT22;24035;48.900;9.188;2023-07-29T04:18:43;17.60;1.00
38239;DHT22;24035;48.900;9.188;2023-07-29T04:21:08;17.50;1.00
38239;DHT22;24035;48.900;9.188;2023-07-29T04:23:34;17.50;1.00
38239;DHT22;24035;48.900;9.188;2023-07-29T04:26:00;17.40;1.00
38239;DHT22;24035;48.900;9.188;2023-07-29T04:28:26;17.50;1.00
38239;DHT22;24035;48.900;9.188;2023-07-29T04:30:52;17.50;6.50
38239;DHT22;24035;48.900;9.188;2023-07-29T04:33:17;17.50;66.90
38239;DHT22;24035;48.900;9.188;2023-07-29T04:35:43;17.40;99.90
38239;DHT22;24035;48.900;9.188;2023-07-29T04:38:09;17.40;99.90
38239;DHT22;24035;48.900;9.188;2023-07-29T04:40:35;17.40;99.90
38239;DHT22;24035;48.900;9.188;2023-07-29T04:43:01;17.40;1.00
38239;DHT22;24035;48.900;9.188;2023-07-29T04:45:30;17.50;1.00
38239;DHT22;24035;48.900;9.188;2023-07-29T04:47:57;17.40;1.00
38239;DHT22;24035;48.900;9.188;2023-07-29T04:50:23;17.40;1.00
38239;DHT22;24035;48.900;9.188;2023-07-29T04:52:49;17.40;1.00
38239;DHT22;24035;48.900;9.188;2023-07-29T04:55:15;17.40;1.00
38239;DHT22;24035;48.900;9.188;2023-07-29T04:57:41;17.50;1.00
38239;DHT22;24035;48.900;9.188;2023-07-29T05:00:07;17.50;1.00
38239;DHT22;24035;48.900;9.188;2023-07-29T05:02:33;17.50;1.00
38239;DHT22;24035;48.900;9.188;2023-07-29T05:04:58;17.50;1.00
38239;DHT22;24035;48.900;9.188;2023-07-29T05:07:24;17.50;1.00
38239;DHT22;24035;48.900;9.188;2023-07-29T05:09:50;17.50;1.00
38239;DHT22;24035;48.900;9.188;2023-07-29T05:12:15;17.50;1.00
38239;DHT22;24035;48.900;9.188;2023-07-29T05:14:41;17.60;1.00
38239;DHT22;24035;48.900;9.188;2023-07-29T05:17:07;17.70;1.00
38239;DHT22;24035;48.900;9.188;2023-07-29T05:19:32;17.80;1.00
38239;DHT22;24035;48.900;9.188;2023-07-29T05:21:58;18.00;1.00
38239;DHT22;24035;48.900;9.188;2023-07-29T05:24:24;18.10;1.00
38239;DHT22;24035;48.900;9.188;2023-07-29T05:26:50;18.10;1.00
38239;DHT22;24035;48.900;9.188;2023-07-29T05:29:15;18.20;1.00
38239;DHT22;24035;48.900;9.188;2023-07-29T05:31:41;18.20;1.00
38239;DHT22;24035;48.900;9.188;2023-07-29T05:34:07;18.30;1.00
38239;DHT22;24035;48.900;9.188;2023-07-29T05:36:32;18.30;1.00
38239;DHT22;24035;48.900;9.188;2023-07-29T05:38:58;18.40;1.00
38239;DHT22;24035;48.900;9.188;2023-07-29T05:41:24;18.40;99.90
38239;DHT22;24035;48.900;9.188;2023-07-29T05:43:53;18.40;20.70
38239;DHT22;24035;48.900;9.188;2023-07-29T05:46:18;18.50;1.00
38239;DHT22;24035;48.900;9.188;2023-07-29T05:48:44;18.60;1.00
38239;DHT22;24035;48.900;9.188;2023-07-29T05:51:10;18.60;99.90
38239;DHT22;24035;48.900;9.188;2023-07-29T05:53:35;18.60;99.90
38239;DHT22;24035;48.900;9.188;2023-07-29T05:56:01;18.60;99.90
38239;DHT22;24035;48.900;9.188;2023-07-29T05:58:27;18.60;1.00
38239;DHT22;24035;48.900;9.188;2023-07-29T06:00:53;18.80;1.00
38239;DHT22;24035;48.900;9.188;2023-07-29T06:03:18;19.10;29.90
38239;DHT22;24035;48.900;9.188;2023-07-29T06:05:44;19.50;1.00
38239;DHT22;24035;48.900;9.188;2023-07-29T06:08:10;19.80;15.20
38239;DHT22;24035;48.900;9.188;2023-07-29T06:10:36;20.00;1.00
38239;DHT22;24035;48.900;9.188;2023-07-29T06:13:01;20.20;1.00
38239;DHT22;24035;48.900;9.188;2023-07-29T06:15:27;20.30;1.00
38239;DHT22;24035;48.900;9.188;2023-07-29T06:17:53;20.50;99.90
38239;DHT22;24035;48.900;9.188;2023-07-29T06:20:19;20.70;99.90
38239;DHT22;24035;48.900;9.188;2023-07-29T06:22:45;21.00;1.00
38239;DHT22;24035;48.900;9.188;2023-07-29T06:25:11;21.10;88.20
38239;DHT22;24035;48.900;9.188;2023-07-29T06:27:37;20.90;1.00
38239;DHT22;24035;48.900;9.188;2023-07-29T06:30:03;20.90;1.00
38239;DHT22;24035;48.900;9.188;2023-07-29T06:32:28;20.80;21.50
38239;DHT22;24035;48.900;9.188;2023-07-29T06:34:54;20.60;99.90
38239;DHT22;24035;48.900;9.188;2023-07-29T06:37:20;20.50;1.00
38239;DHT22;24035;48.900;9.188;2023-07-29T06:39:46;20.40;99.90
38239;DHT22;24035;48.900;9.188;2023-07-29T06:42:12;20.30;99.90
38239;DHT22;24035;48.900;9.188;2023-07-29T06:44:38;20.20;1.00
38239;DHT22;24035;48.900;9.188;2023-07-29T06:47:04;20.10;99.90
38239;DHT22;24035;48.900;9.188;2023-07-29T06:49:29;20.10;1.00
38239;DHT22;24035;48.900;9.188;2023-07-29T06:51:55;20.10;1.00
38239;DHT22;24035;48.900;9.188;2023-07-29T06:54:24;20.10;99.90
38239;DHT22;24035;48.900;9.188;2023-07-29T06:56:52;20.10;1.00
38239;DHT22;24035;48.900;9.188;2023-07-29T06:59:18;20.10;99.90
38239;DHT22;24035;48.900;9.188;2023-07-29T07:01:44;20.20;1.00
38239;DHT22;24035;48.900;9.188;2023-07-29T07:04:09;20.20;99.90
38239;DHT22;24035;48.900;9.188;2023-07-29T07:06:35;20.20;1.00
38239;DHT22;24035;48.900;9.188;2023-07-29T07:09:01;20.20;99.90
38239;DHT22;24035;48.900;9.188;2023-07-29T07:11:26;20.20;99.90
38239;DHT22;24035;48.900;9.188;2023-07-29T07:13:52;20.20;1.00
38239;DHT22;24035;48.900;9.188;2023-07-29T07:16:18;20.20;1.00
38239;DHT22;24035;48.900;9.188;2023-07-29T07:18:44;20.20;1.00
38239;DHT22;24035;48.900;9.188;2023-07-29T07:21:09;20.30;1.00
38239;DHT22;24035;48.900;9.188;2023-07-29T07:23:35;20.30;1.00
38239;DHT22;24035;48.900;9.188;2023-07-29T07:26:02;20.40;1.00
38239;DHT22;24035;48.900;9.188;2023-07-29T07:28:28;20.40;99.90
38239;DHT22;24035;48.900;9.188;2023-07-29T07:30:54;20.40;1.00
38239;DHT22;24035;48.900;9.188;2023-07-29T07:33:21;20.50;99.90
38239;DHT22;24035;48.900;9.188;2023-07-29T07:35:47;20.50;99.90
38239;DHT22;24035;48.900;9.188;2023-07-29T07:38:13;20.40;99.90
38239;DHT22;24035;48.900;9.188;2023-07-29T07:40:39;20.60;99.90
38239;DHT22;24035;48.900;9.188;2023-07-29T07:43:05;20.80;99.90
38239;DHT22;24035;48.900;9.188;2023-07-29T07:45:32;20.90;99.90
38239;DHT22;24035;48.900;9.188;2023-07-29T07:47:58;21.00;99.90
38239;DHT22;24035;48.900;9.188;2023-07-29T07:50:24;21.10;1.00
38239;DHT22;24035;48.900;9.188;2023-07-29T07:52:50;21.00;99.90
38239;DHT22;24035;48.900;9.188;2023-07-29T07:55:16;21.10;99.90
38239;DHT22;24035;48.900;9.188;2023-07-29T07:57:41;21.30;1.00
38239;DHT22;24035;48.900;9.188;2023-07-29T08:00:08;21.50;67.20
38239;DHT22;24035;48.900;9.188;2023-07-29T08:02:35;21.70;1.00
38239;DHT22;24035;48.900;9.188;2023-07-29T08:05:00;22.10;1.00
38239;DHT22;24035;48.900;9.188;2023-07-29T08:07:26;22.90;1.00
38239;DHT22;24035;48.900;9.188;2023-07-29T08:09:52;24.20;1.00
38239;DHT22;24035;48.900;9.188;2023-07-29T08:12:18;26.00;1.00
38239;DHT22;24035;48.900;9.188;2023-07-29T08:14:43;27.10;99.90
38239;DHT22;24035;48.900;9.188;2023-07-29T08:17:09;27.90;1.00
38239;DHT22;24035;48.900;9.188;2023-07-29T08:19:35;28.50;1.00
38239;DHT22;24035;48.900;9.188;2023-07-29T08:22:02;29.20;1.00
38239;DHT22;24035;48.900;9.188;2023-07-29T08:24:28;29.70;1.00
38239;DHT22;24035;48.900;9.188;2023-07-29T08:26:54;29.40;1.00
38239;DHT22;24035;48.900;9.188;2023-07-29T08:29:20;29.30;1.00
38239;DHT22;24035;48.900;9.188;2023-07-29T08:31:46;28.10;1.00
38239;DHT22;24035;48.900;9.188;2023-07-29T08:34:11;26.40;1.00
38239;DHT22;24035;48.900;9.188;2023-07-29T08:36:37;25.20;99.90
38239;DHT22;24035;48.900;9.188;2023-07-29T08:39:03;24.40;1.00
38239;DHT22;24035;48.900;9.188;2023-07-29T08:41:37;24.20;1.00
38239;DHT22;24035;48.900;9.188;2023-07-29T08:46:29;24.20;1.00
38239;DHT22;24035;48.900;9.188;2023-07-29T08:48:55;24.30;1.00
38239;DHT22;24035;48.900;9.188;2023-07-29T08:51:23;24.60;1.00
38239;DHT22;24035;48.900;9.188;2023-07-29T08:53:49;24.80;1.00
38239;DHT22;24035;48.900;9.188;2023-07-29T08:56:16;25.00;99.90
38239;DHT22;24035;48.900;9.188;2023-07-29T08:58:42;25.40;99.90
38239;DHT22;24035;48.900;9.188;2023-07-29T09:01:08;26.00;99.90
38239;DHT22;24035;48.900;9.188;2023-07-29T09:03:34;26.30;99.90
38239;DHT22;24035;48.900;9.188;2023-07-29T09:06:01;26.50;5.00
38239;DHT22;24035;48.900;9.188;2023-07-29T09:08:28;26.70;1.00
38239;DHT22;24035;48.900;9.188;2023-07-29T09:10:54;26.70;1.00
38239;DHT22;24035;48.900;9.188;2023-07-29T09:13:22;26.90;1.00
38239;DHT22;24035;48.900;9.188;2023-07-29T09:15:48;27.10;1.00
38239;DHT22;24035;48.900;9.188;2023-07-29T09:18:19;27.00;1.00
38239;DHT22;24035;48.900;9.188;2023-07-29T09:20:49;26.80;1.00
38239;DHT22;24035;48.900;9.188;2023-07-29T09:23:16;26.80;1.00
38239;DHT22;24035;48.900;9.188;2023-07-29T09:25:42;26.80;1.00
38239;DHT22;24035;48.900;9.188;2023-07-29T09:28:11;26.70;1.00
38239;DHT22;24035;48.900;9.188;2023-07-29T09:30:41;26.60;1.00
38239;DHT22;24035;48.900;9.188;2023-07-29T09:33:09;26.70;1.00
38239;DHT22;24035;48.900;9.188;2023-07-29T09:35:37;26.80;1.00
38239;DHT22;24035;48.900;9.188;2023-07-29T09:38:05;26.70;1.00
38239;DHT22;24035;48.900;9.188;2023-07-29T09:40:38;27.00;1.00
38239;DHT22;24035;48.900;9.188;2023-07-29T09:43:05;27.30;1.00
38239;DHT22;24035;48.900;9.188;2023-07-29T09:45:34;27.30;1.00
38239;DHT22;24035;48.900;9.188;2023-07-29T09:48:01;27.30;1.00
38239;DHT22;24035;48.900;9.188;2023-07-29T09:50:27;26.90;1.00
38239;DHT22;24035;48.900;9.188;2023-07-29T09:52:54;26.30;1.00
38239;DHT22;24035;48.900;9.188;2023-07-29T09:55:22;25.50;1.00
38239;DHT22;24035;48.900;9.188;2023-07-29T09:57:55;24.90;1.00
38239;DHT22;24035;48.900;9.188;2023-07-29T10:00:21;24.30;99.90
38239;DHT22;24035;48.900;9.188;2023-07-29T10:02:47;23.40;1.00
38239;DHT22;24035;48.900;9.188;2023-07-29T10:05:14;22.00;1.00
38239;DHT22;24035;48.900;9.188;2023-07-29T10:07:40;20.60;99.90
38239;DHT22;24035;48.900;9.188;2023-07-29T10:10:07;20.00;99.90
38239;DHT22;24035;48.900;9.188;2023-07-29T10:12:34;19.50;99.90
38239;DHT22;24035;48.900;9.188;2023-07-29T10:15:04;19.40;1.00
38239;DHT22;24035;48.900;9.188;2023-07-29T10:17:33;19.50;1.00
38239;DHT22;24035;48.900;9.188;2023-07-29T10:20:00;19.50;1.00
38239;DHT22;24035;48.900;9.188;2023-07-29T10:22:41;19.50;1.00
38239;DHT22;24035;48.900;9.188;2023-07-29T10:25:10;19.90;1.00
38239;DHT22;24035;48.900;9.188;2023-07-29T10:30:17;20.20;96.60
38239;DHT22;24035;48.900;9.188;2023-07-29T10:32:44;20.40;1.00
38239;DHT22;24035;48.900;9.188;2023-07-29T10:35:13;21.00;90.20
38239;DHT22;24035;48.900;9.188;2023-07-29T10:37:40;21.70;1.00
38239;DHT22;24035;48.900;9.188;2023-07-29T10:40:08;22.80;1.00
38239;DHT22;24035;48.900;9.188;2023-07-29T10:42:34;23.60;99.90
38239;DHT22;24035;48.900;9.188;2023-07-29T10:45:02;23.70;99.90
38239;DHT22;24035;48.900;9.188;2023-07-29T10:47:42;23.20;99.90
38239;DHT22;24035;48.900;9.188;2023-07-29T10:50:20;23.00;99.90
38239;DHT22;24035;48.900;9.188;2023-07-29T10:52:50;22.90;1.00
38239;DHT22;24035;48.900;9.188;2023-07-29T10:58:15;22.90;1.00
38239;DHT22;24035;48.900;9.188;2023-07-29T11:00:45;22.90;1.00
38239;DHT22;24035;48.900;9.188;2023-07-29T11:03:12;23.10;12.90
38239;DHT22;24035;48.900;9.188;2023-07-29T11:05:44;23.10;60.80
38239;DHT22;24035;48.900;9.188;2023-07-29T11:08:29;23.30;1.00
38239;DHT22;24035;48.900;9.188;2023-07-29T11:11:04;23.70;1.00
38239;DHT22;24035;48.900;9.188;2023-07-29T11:13:31;24.10;1.00
38239;DHT22;24035;48.900;9.188;2023-07-29T11:15:58;24.30;1.00
38239;DHT22;24035;48.900;9.188;2023-07-29T11:18:35;24.50;99.90
38239;DHT22;24035;48.900;9.188;2023-07-29T11:21:02;24.20;99.90
38239;DHT22;24035;48.900;9.188;2023-07-29T11:23:36;24.20;99.90
38239;DHT22;24035;48.900;9.188;2023-07-29T11:26:03;24.20;99.90
38239;DHT22;24035;48.900;9.188;2023-07-29T11:28:30;24.20;99.90
38239;DHT22;24035;48.900;9.188;2023-07-29T11:30:57;24.10;99.90
38239;DHT22;24035;48.900;9.188;2023-07-29T11:33:26;24.20;99.90
38239;DHT22;24035;48.900;9.188;2023-07-29T11:35:54;24.40;2.60
38239;DHT22;24035;48.900;9.188;2023-07-29T11:38:21;24.20;2.30
38239;DHT22;24035;48.900;9.188;2023-07-29T11:41:00;24.20;1.00
38239;DHT22;24035;48.900;9.188;2023-07-29T11:43:26;24.30;5.80
38239;DHT22;24035;48.900;9.188;2023-07-29T11:45:52;24.40;1.00
38239;DHT22;24035;48.900;9.188;2023-07-29T11:48:30;24.90;1.00
38239;DHT22;24035;48.900;9.188;2023-07-29T11:50:56;25.10;1.00
38239;DHT22;24035;48.900;9.188;2023-07-29T11:53:26;24.80;1.00
38239;DHT22;24035;48.900;9.188;2023-07-29T11:55:53;24.70;1.00
38239;DHT22;24035;48.900;9.188;2023-07-29T11:58:20;24.60;1.00
38239;DHT22;24035;48.900;9.188;2023-07-29T12:00:46;24.40;55.60
38239;DHT22;24035;48.900;9.188;2023-07-29T12:03:12;24.50;99.90
38239;DHT22;24035;48.900;9.188;2023-07-29T12:05:38;24.60;1.00
38239;DHT22;24035;48.900;9.188;2023-07-29T12:08:04;24.70;1.00
38239;DHT22;24035;48.900;9.188;2023-07-29T12:10:30;24.90;1.00
38239;DHT22;24035;48.900;9.188;2023-07-29T12:12:56;25.30;1.00
38239;DHT22;24035;48.900;9.188;2023-07-29T12:15:27;25.60;1.00
38239;DHT22;24035;48.900;9.188;2023-07-29T12:17:55;25.70;1.00
38239;DHT22;24035;48.900;9.188;2023-07-29T12:20:22;25.60;1.00
38239;DHT22;24035;48.900;9.188;2023-07-29T12:22:54;25.30;1.00
38239;DHT22;24035;48.900;9.188;2023-07-29T12:25:20;25.40;1.00
38239;DHT22;24035;48.900;9.188;2023-07-29T12:27:47;25.10;1.00
38239;DHT22;24035;48.900;9.188;2023-07-29T12:30:12;25.10;1.00
38239;DHT22;24035;48.900;9.188;2023-07-29T12:32:45;25.30;1.00
38239;DHT22;24035;48.900;9.188;2023-07-29T12:35:12;25.70;1.00
38239;DHT22;24035;48.900;9.188;2023-07-29T12:37:38;25.90;99.90
38239;DHT22;24035;48.900;9.188;2023-07-29T12:40:19;25.60;99.90
38239;DHT22;24035;48.900;9.188;2023-07-29T12:42:45;25.70;99.90
38239;DHT22;24035;48.900;9.188;2023-07-29T12:45:11;25.80;1.00
38239;DHT22;24035;48.900;9.188;2023-07-29T12:47:37;26.10;99.90
38239;DHT22;24035;48.900;9.188;2023-07-29T12:50:03;26.20;99.90
38239;DHT22;24035;48.900;9.188;2023-07-29T12:52:28;26.40;99.90
38239;DHT22;24035;48.900;9.188;2023-07-29T12:54:54;26.50;99.90
38239;DHT22;24035;48.900;9.188;2023-07-29T12:57:20;26.70;99.90
38239;DHT22;24035;48.900;9.188;2023-07-29T12:59:45;26.50;99.90
38239;DHT22;24035;48.900;9.188;2023-07-29T13:02:11;26.00;99.90
38239;DHT22;24035;48.900;9.188;2023-07-29T13:04:37;26.30;99.90
38239;DHT22;24035;48.900;9.188;2023-07-29T13:07:03;26.40;99.90
38239;DHT22;24035;48.900;9.188;2023-07-29T13:09:28;26.50;99.90
38239;DHT22;24035;48.900;9.188;2023-07-29T13:11:54;26.50;99.90
38239;DHT22;24035;48.900;9.188;2023-07-29T13:14:20;26.40;99.90
38239;DHT22;24035;48.900;9.188;2023-07-29T13:16:45;26.10;99.90
38239;DHT22;24035;48.900;9.188;2023-07-29T13:19:11;26.10;99.90
38239;DHT22;24035;48.900;9.188;2023-07-29T13:21:37;26.00;99.90
38239;DHT22;24035;48.900;9.188;2023-07-29T13:24:03;26.10;99.90
38239;DHT22;24035;48.900;9.188;2023-07-29T13:26:28;26.30;99.90
38239;DHT22;24035;48.900;9.188;2023-07-29T13:28:54;26.80;99.90
38239;DHT22;24035;48.900;9.188;2023-07-29T13:31:21;27.30;99.90
38239;DHT22;24035;48.900;9.188;2023-07-29T13:33:47;27.70;99.90
38239;DHT22;24035;48.900;9.188;2023-07-29T13:36:13;27.90;99.90
38239;DHT22;24035;48.900;9.188;2023-07-29T13:38:38;27.60;99.90
38239;DHT22;24035;48.900;9.188;2023-07-29T13:41:04;27.20;99.90
38239;DHT22;24035;48.900;9.188;2023-07-29T13:43:31;27.20;99.90
38239;DHT22;24035;48.900;9.188;2023-07-29T13:45:56;27.60;99.90
38239;DHT22;24035;48.900;9.188;2023-07-29T13:48:22;27.60;99.90
38239;DHT22;24035;48.900;9.188;2023-07-29T13:50:48;27.30;99.90
38239;DHT22;24035;48.900;9.188;2023-07-29T13:53:14;27.50;99.90
38239;DHT22;24035;48.900;9.188;2023-07-29T13:55:39;27.40;99.90
38239;DHT22;24035;48.900;9.188;2023-07-29T13:58:05;27.30;99.90
38239;DHT22;24035;48.900;9.188;2023-07-29T14:00:31;27.40;99.90
38239;DHT22;24035;48.900;9.188;2023-07-29T14:02:57;27.30;99.90
38239;DHT22;24035;48.900;9.188;2023-07-29T14:05:22;27.30;99.90
38239;DHT22;24035;48.900;9.188;2023-07-29T14:07:48;27.60;99.90
38239;DHT22;24035;48.900;9.188;2023-07-29T14:10:13;27.60;99.90
38239;DHT22;24035;48.900;9.188;2023-07-29T14:12:39;27.50;99.90
38239;DHT22;24035;48.900;9.188;2023-07-29T14:15:05;27.20;99.90
38239;DHT22;24035;48.900;9.188;2023-07-29T14:17:32;26.90;99.90
38239;DHT22;24035;48.900;9.188;2023-07-29T14:19:58;26.70;99.90
38239;DHT22;24035;48.900;9.188;2023-07-29T14:22:23;26.80;99.90
38239;DHT22;24035;48.900;9.188;2023-07-29T14:24:49;27.20;99.90
38239;DHT22;24035;48.900;9.188;2023-07-29T14:27:15;27.10;99.90
38239;DHT22;24035;48.900;9.188;2023-07-29T14:29:42;27.20;99.90
38239;DHT22;24035;48.900;9.188;2023-07-29T14:32:08;27.50;99.90
38239;DHT22;24035;48.900;9.188;2023-07-29T14:34:34;27.50;99.90
38239;DHT22;24035;48.900;9.188;2023-07-29T14:36:59;27.60;99.90
38239;DHT22;24035;48.900;9.188;2023-07-29T14:39:25;27.60;99.90
38239;DHT22;24035;48.900;9.188;2023-07-29T14:41:51;27.30;99.90
38239;DHT22;24035;48.900;9.188;2023-07-29T14:44:17;27.20;99.90
38239;DHT22;24035;48.900;9.188;2023-07-29T14:46:42;27.20;99.90
38239;DHT22;24035;48.900;9.188;2023-07-29T14:49:08;27.40;99.90
38239;DHT22;24035;48.900;9.188;2023-07-29T14:51:34;27.30;99.90
38239;DHT22;24035;48.900;9.188;2023-07-29T14:54:00;27.30;99.90
38239;DHT22;24035;48.900;9.188;2023-07-29T14:56:26;27.40;99.90
38239;DHT22;24035;48.900;9.188;2023-07-29T14:58:52;27.30;99.90
38239;DHT22;24035;48.900;9.188;2023-07-29T15:01:17;27.20;99.90
38239;DHT22;24035;48.900;9.188;2023-07-29T15:03:43;26.70;99.90
38239;DHT22;24035;48.900;9.188;2023-07-29T15:06:09;26.50;99.90
38239;DHT22;24035;48.900;9.188;2023-07-29T15:08:34;26.80;99.90
38239;DHT22;24035;48.900;9.188;2023-07-29T15:11:01;27.50;99.90
38239;DHT22;24035;48.900;9.188;2023-07-29T15:13:27;28.30;99.90
38239;DHT22;24035;48.900;9.188;2023-07-29T15:15:52;28.90;99.90
38239;DHT22;24035;48.900;9.188;2023-07-29T15:18:18;29.20;99.90
38239;DHT22;24035;48.900;9.188;2023-07-29T15:20:44;30.00;99.90
38239;DHT22;24035;48.900;9.188;2023-07-29T15:23:10;30.50;99.90
38239;DHT22;24035;48.900;9.188;2023-07-29T15:25:36;30.80;91.10
38239;DHT22;24035;48.900;9.188;2023-07-29T15:28:01;30.20;80.50
38239;DHT22;24035;48.900;9.188;2023-07-29T15:30:27;29.20;96.80
38239;DHT22;24035;48.900;9.188;2023-07-29T15:32:53;29.10;99.90
38239;DHT22;24035;48.900;9.188;2023-07-29T15:35:22;29.70;86.50
38239;DHT22;24035;48.900;9.188;2023-07-29T15:37:47;29.50;85.10
38239;DHT22;24035;48.900;9.188;2023-07-29T15:40:13;28.90;99.90
38239;DHT22;24035;48.900;9.188;2023-07-29T15:42:39;28.70;99.90
38239;DHT22;24035;48.900;9.188;2023-07-29T15:45:05;29.10;99.90
38239;DHT22;24035;48.900;9.188;2023-07-29T15:47:31;29.60;99.90